sensor_id;sensor_type;location;lat;lon;timestamp;temperature;humidity
55642;DHT22;41509;53.108;6.100;2023-05-19T00:01:26;8.90;99.90
55642;DHT22;41509;53.108;6.100;2023-05-19T00:03:56;8.90;99.90
55642;DHT22;41509;53.108;6.100;2023-05-19T00:06:28;8.90;99.90
55642;DHT22;41509;53.108;6.100;2023-05-19T00:09:03;8.90;99.90
55642;DHT22;41509;53.108;6.100;2023-05-19T00:11:32;8.90;99.90
55642;DHT22;41509;53.108;6.100;2023-05-19T00:14:01;8.80;99.90
55642;DHT22;41509;53.108;6.100;2023-05-19T00:16:28;8.90;99.90
55642;DHT22;41509;53.108;6.100;2023-05-19T00:18:54;8.90;99.90
55642;DHT22;41509;53.108;6.100;2023-05-19T00:21:24;8.80;99.90
55642;DHT22;41509;53.108;6.100;2023-05-19T00:23:53;8.80;99.90
55642;DHT22;41509;53.108;6.100;2023-05-19T00:26:19;8.80;99.90
55642;DHT22;41509;53.108;6.100;2023-05-19T00:28:47;8.80;99.90
55642;DHT22;41509;53.108;6.100;2023-05-19T00:31:13;8.80;99.90
55642;DHT22;41509;53.108;6.100;2023-05-19T00:33:38;8.80;99.90
55642;DHT22;41509;53.108;6.100;2023-05-19T00:36:05;8.90;99.90
55642;DHT22;41509;53.108;6.100;2023-05-19T00:38:31;8.80;99.90
55642;DHT22;41509;53.108;6.100;2023-05-19T00:40:58;8.70;99.90
55642;DHT22;41509;53.108;6.100;2023-05-19T00:43:24;8.80;99.90
55642;DHT22;41509;53.108;6.100;2023-05-19T00:45:50;8.70;99.90
55642;DHT22;41509;53.108;6.100;2023-05-19T00:48:16;8.80;99.90
55642;DHT22;41509;53.108;6.100;2023-05-19T00:50:42;8.80;99.90
55642;DHT22;41509;53.108;6.100;2023-05-19T00:53:08;8.70;99.90
55642;DHT22;41509;53.108;6.100;2023-05-19T00:55:36;8.70;99.90
55642;DHT22;41509;53.108;6.100;2023-05-19T00:58:03;8.70;99.90
55642;DHT22;41509;53.108;6.100;2023-05-19T01:00:30;8.70;99.90
55642;DHT22;41509;53.108;6.100;2023-05-19T01:02:56;8.70;99.90
55642;DHT22;41509;53.108;6.100;2023-05-19T01:05:21;8.70;99.90
55642;DHT22;41509;53.108;6.100;2023-05-19T01:07:47;8.70;99.90
55642;DHT22;41509;53.108;6.100;2023-05-19T01:10:19;8.70;99.90
55642;DHT22;41509;53.108;6.100;2023-05-19T01:12:46;8.70;99.90
55642;DHT22;41509;53.108;6.100;2023-05-19T01:15:12;8.70;99.90
55642;DHT22;41509;53.108;6.100;2023-05-19T01:17:47;8.70;99.90
55642;DHT22;41509;53.108;6.100;2023-05-19T01:20:21;8.70;99.90
55642;DHT22;41509;53.108;6.100;2023-05-19T01:28:23;8.60;99.90
55642;DHT22;41509;53.108;6.100;2023-05-19T01:30:55;8.60;99.90
55642;DHT22;41509;53.108;6.100;2023-05-19T01:33:23;8.60;99.90
55642;DHT22;41509;53.108;6.100;2023-05-19T01:35:49;8.60;99.90
55642;DHT22;41509;53.108;6.100;2023-05-19T01:38:16;8.50;99.90
55642;DHT22;41509;53.108;6.100;2023-05-19T01:40:47;8.50;99.90
55642;DHT22;41509;53.108;6.100;2023-05-19T01:43:20;8.50;99.90
55642;DHT22;41509;53.108;6.100;2023-05-19T01:45:46;8.50;99.90
55642;DHT22;41509;53.108;6.100;2023-05-19T01:48:13;8.50;99.90
55642;DHT22;41509;53.108;6.100;2023-05-19T01:50:40;8.60;99.90
55642;DHT22;41509;53.108;6.100;2023-05-19T01:53:05;8.50;99.90
55642;DHT22;41509;53.108;6.100;2023-05-19T01:55:31;8.40;99.90
55642;DHT22;41509;53.108;6.100;2023-05-19T01:58:14;8.50;99.90
55642;DHT22;41509;53.108;6.100;2023-05-19T02:00:57;8.40;99.90
55642;DHT22;41509;53.108;6.100;2023-05-19T02:09:11;8.40;99.90
55642;DHT22;41509;53.108;6.100;2023-05-19T02:11:52;8.40;99.90
55642;DHT22;41509;53.108;6.100;2023-05-19T02:14:29;8.40;99.90
55642;DHT22;41509;53.108;6.100;2023-05-19T02:16:58;8.40;99.90
55642;DHT22;41509;53.108;6.100;2023-05-19T02:19:26;8.40;99.90
55642;DHT22;41509;53.108;6.100;2023-05-19T02:21:52;8.40;99.90
55642;DHT22;41509;53.108;6.100;2023-05-19T02:24:18;8.40;99.90
55642;DHT22;41509;53.108;6.100;2023-05-19T02:26:45;8.40;99.90
55642;DHT22;41509;53.108;6.100;2023-05-19T02:29:13;8.40;99.90
55642;DHT22;41509;53.108;6.100;2023-05-19T02:31:39;8.40;99.90
55642;DHT22;41509;53.108;6.100;2023-05-19T02:34:04;8.40;99.90
55642;DHT22;41509;53.108;6.100;2023-05-19T02:36:33;8.40;99.90
55642;DHT22;41509;53.108;6.100;2023-05-19T02:39:00;8.40;99.90
55642;DHT22;41509;53.108;6.100;2023-05-19T02:41:28;8.40;99.90
55642;DHT22;41509;53.108;6.100;2023-05-19T02:43:54;8.40;99.90
55642;DHT22;41509;53.108;6.100;2023-05-19T02:46:20;8.40;99.90
55642;DHT22;41509;53.108;6.100;2023-05-19T02:48:45;8.40;99.90
55642;DHT22;41509;53.108;6.100;2023-05-19T02:51:11;8.40;99.90
55642;DHT22;41509;53.108;6.100;2023-05-19T02:53:36;8.40;99.90
55642;DHT22;41509;53.108;6.100;2023-05-19T02:56:02;8.40;99.90
55642;DHT22;41509;53.108;6.100;2023-05-19T02:58:28;8.40;99.90
55642;DHT22;41509;53.108;6.100;2023-05-19T03:00:54;8.30;99.90
55642;DHT22;41509;53.108;6.100;2023-05-19T03:03:20;8.30;99.90
55642;DHT22;41509;53.108;6.100;2023-05-19T03:05:45;8.30;99.90
55642;DHT22;41509;53.108;6.100;2023-05-19T03:08:12;8.30;99.90
55642;DHT22;41509;53.108;6.100;2023-05-19T03:10:37;8.30;99.90
55642;DHT22;41509;53.108;6.100;2023-05-19T03:13:03;8.30;99.90
55642;DHT22;41509;53.108;6.100;2023-05-19T03:15:29;8.30;99.90
55642;DHT22;41509;53.108;6.100;2023-05-19T03:17:55;8.30;99.90
55642;DHT22;41509;53.108;6.100;2023-05-19T03:20:26;8.30;99.90
55642;DHT22;41509;53.108;6.100;2023-05-19T03:22:51;8.30;99.90
55642;DHT22;41509;53.108;6.100;2023-05-19T03:25:17;8.30;99.90
55642;DHT22;41509;53.108;6.100;2023-05-19T03:27:42;8.30;99.90
55642;DHT22;41509;53.108;6.100;2023-05-19T03:30:08;8.30;99.90
55642;DHT22;41509;53.108;6.100;2023-05-19T03:32:34;8.20;99.90
55642;DHT22;41509;53.108;6.100;2023-05-19T03:35:03;8.30;99.90
55642;DHT22;41509;53.108;6.100;2023-05-19T03:37:30;8.20;99.90
55642;DHT22;41509;53.108;6.100;2023-05-19T03:39:57;8.20;99.90
55642;DHT22;41509;53.108;6.100;2023-05-19T03:42:22;8.20;99.90
55642;DHT22;41509;53.108;6.100;2023-05-19T03:44:48;8.10;99.90
55642;DHT22;41509;53.108;6.100;2023-05-19T03:47:14;8.20;99.90
55642;DHT22;41509;53.108;6.100;2023-05-19T03:49:40;8.20;99.90
55642;DHT22;41509;53.108;6.100;2023-05-19T03:52:06;8.20;99.90
55642;DHT22;41509;53.108;6.100;2023-05-19T03:54:31;8.20;99.90
55642;DHT22;41509;53.108;6.100;2023-05-19T03:56:57;8.20;99.90
55642;DHT22;41509;53.108;6.100;2023-05-19T03:59:23;8.20;99.90
55642;DHT22;41509;53.108;6.100;2023-05-19T04:01:49;8.20;99.90
55642;DHT22;41509;53.108;6.100;2023-05-19T04:04:15;8.20;99.90
55642;DHT22;41509;53.108;6.100;2023-05-19T04:06:40;8.20;99.90
55642;DHT22;41509;53.108;6.100;2023-05-19T04:09:13;8.30;99.90
55642;DHT22;41509;53.108;6.100;2023-05-19T04:11:44;8.30;99.90
55642;DHT22;41509;53.108;6.100;2023-05-19T04:14:10;8.30;99.90
55642;DHT22;41509;53.108;6.100;2023-05-19T04:16:36;8.30;99.90
55642;DHT22;41509;53.108;6.100;2023-05-19T04:19:01;8.30;99.90
55642;DHT22;41509;53.108;6.100;2023-05-19T04:21:27;8.40;99.90
55642;DHT22;41509;53.108;6.100;2023-05-19T04:23:53;8.40;99.90
55642;DHT22;41509;53.108;6.100;2023-05-19T04:26:18;8.40;99.90
55642;DHT22;41509;53.108;6.100;2023-05-19T04:28:46;8.50;99.90
55642;DHT22;41509;53.108;6.100;2023-05-19T04:31:13;8.50;99.90
55642;DHT22;41509;53.108;6.100;2023-05-19T04:33:39;8.50;99.90
55642;DHT22;41509;53.108;6.100;2023-05-19T04:36:06;8.60;99.90
55642;DHT22;41509;53.108;6.100;2023-05-19T04:38:37;8.60;99.90
55642;DHT22;41509;53.108;6.100;2023-05-19T04:41:07;8.70;99.90
55642;DHT22;41509;53.108;6.100;2023-05-19T04:43:37;8.70;99.90
55642;DHT22;41509;53.108;6.100;2023-05-19T04:46:06;8.70;99.90
55642;DHT22;41509;53.108;6.100;2023-05-19T04:48:32;8.80;99.90
55642;DHT22;41509;53.108;6.100;2023-05-19T04:50:58;8.80;99.90
55642;DHT22;41509;53.108;6.100;2023-05-19T04:53:29;8.90;99.90
55642;DHT22;41509;53.108;6.100;2023-05-19T04:55:56;9.00;99.90
55642;DHT22;41509;53.108;6.100;2023-05-19T04:58:22;8.90;99.90
55642;DHT22;41509;53.108;6.100;2023-05-19T05:00:51;9.00;99.90
55642;DHT22;41509;53.108;6.100;2023-05-19T05:03:17;9.10;99.90
55642;DHT22;41509;53.108;6.100;2023-05-19T05:05:43;9.10;99.90
55642;DHT22;41509;53.108;6.100;2023-05-19T05:08:09;9.20;99.90
55642;DHT22;41509;53.108;6.100;2023-05-19T05:10:35;9.20;99.90
55642;DHT22;41509;53.108;6.100;2023-05-19T05:13:01;9.30;99.90
55642;DHT22;41509;53.108;6.100;2023-05-19T05:15:27;9.30;99.90
55642;DHT22;41509;53.108;6.100;2023-05-19T05:17:57;9.40;99.90
55642;DHT22;41509;53.108;6.100;2023-05-19T05:20:23;9.40;99.90
55642;DHT22;41509;53.108;6.100;2023-05-19T05:22:49;9.50;99.90
55642;DHT22;41509;53.108;6.100;2023-05-19T05:25:15;9.60;99.90
55642;DHT22;41509;53.108;6.100;2023-05-19T05:27:41;9.60;99.90
55642;DHT22;41509;53.108;6.100;2023-05-19T05:30:07;9.70;99.90
55642;DHT22;41509;53.108;6.100;2023-05-19T05:32:33;9.70;99.90
55642;DHT22;41509;53.108;6.100;2023-05-19T05:35:02;9.80;99.90
55642;DHT22;41509;53.108;6.100;2023-05-19T05:37:27;9.90;99.90
55642;DHT22;41509;53.108;6.100;2023-05-19T05:39:53;10.00;99.90
55642;DHT22;41509;53.108;6.100;2023-05-19T05:42:18;10.00;99.90
55642;DHT22;41509;53.108;6.100;2023-05-19T05:44:44;10.10;99.90
55642;DHT22;41509;53.108;6.100;2023-05-19T05:47:10;10.20;99.90
55642;DHT22;41509;53.108;6.100;2023-05-19T05:49:37;10.20;99.90
55642;DHT22;41509;53.108;6.100;2023-05-19T05:52:04;10.30;99.90
55642;DHT22;41509;53.108;6.100;2023-05-19T05:54:31;10.40;99.90
55642;DHT22;41509;53.108;6.100;2023-05-19T05:56:56;10.40;99.90
55642;DHT22;41509;53.108;6.100;2023-05-19T05:59:22;10.50;99.90
55642;DHT22;41509;53.108;6.100;2023-05-19T06:01:48;10.60;99.90
55642;DHT22;41509;53.108;6.100;2023-05-19T06:04:13;10.70;99.90
55642;DHT22;41509;53.108;6.100;2023-05-19T06:06:39;10.70;99.90
55642;DHT22;41509;53.108;6.100;2023-05-19T06:09:04;10.80;99.90
55642;DHT22;41509;53.108;6.100;2023-05-19T06:11:30;10.90;99.90
55642;DHT22;41509;53.108;6.100;2023-05-19T06:13:56;10.90;99.90
55642;DHT22;41509;53.108;6.100;2023-05-19T06:16:22;11.00;99.90
55642;DHT22;41509;53.108;6.100;2023-05-19T06:18:48;11.00;99.90
55642;DHT22;41509;53.108;6.100;2023-05-19T06:21:13;11.10;99.90
55642;DHT22;41509;53.108;6.100;2023-05-19T06:23:39;11.10;99.90
55642;DHT22;41509;53.108;6.100;2023-05-19T06:26:05;11.20;99.90
55642;DHT22;41509;53.108;6.100;2023-05-19T06:28:32;11.20;99.90
55642;DHT22;41509;53.108;6.100;2023-05-19T06:30:57;11.30;99.90
55642;DHT22;41509;53.108;6.100;2023-05-19T06:33:24;11.30;99.90
55642;DHT22;41509;53.108;6.100;2023-05-19T06:35:50;11.40;99.90
55642;DHT22;41509;53.108;6.100;2023-05-19T06:38:15;11.50;99.90
55642;DHT22;41509;53.108;6.100;2023-05-19T06:40:41;11.50;99.90
55642;DHT22;41509;53.108;6.100;2023-05-19T06:43:20;11.60;99.90
55642;DHT22;41509;53.108;6.100;2023-05-19T06:45:46;11.70;99.90
55642;DHT22;41509;53.108;6.100;2023-05-19T06:48:12;11.70;99.90
55642;DHT22;41509;53.108;6.100;2023-05-19T06:50:37;11.80;99.90
55642;DHT22;41509;53.108;6.100;2023-05-19T06:53:03;11.90;99.90
55642;DHT22;41509;53.108;6.100;2023-05-19T06:55:28;12.00;99.90
55642;DHT22;41509;53.108;6.100;2023-05-19T06:57:54;12.10;99.90
55642;DHT22;41509;53.108;6.100;2023-05-19T07:00:20;12.10;99.90
55642;DHT22;41509;53.108;6.100;2023-05-19T07:02:45;12.20;99.90
55642;DHT22;41509;53.108;6.100;2023-05-19T07:05:11;12.30;99.90
55642;DHT22;41509;53.108;6.100;2023-05-19T07:07:37;12.30;99.90
55642;DHT22;41509;53.108;6.100;2023-05-19T07:10:02;12.40;99.90
55642;DHT22;41509;53.108;6.100;2023-05-19T07:12:28;12.50;99.90
55642;DHT22;41509;53.108;6.100;2023-05-19T07:14:54;12.60;99.90
55642;DHT22;41509;53.108;6.100;2023-05-19T07:17:19;12.60;99.90
55642;DHT22;41509;53.108;6.100;2023-05-19T07:19:45;12.70;99.90
55642;DHT22;41509;53.108;6.100;2023-05-19T07:22:10;12.80;99.90
55642;DHT22;41509;53.108;6.100;2023-05-19T07:24:36;12.80;99.90
55642;DHT22;41509;53.108;6.100;2023-05-19T07:27:02;12.90;99.90
55642;DHT22;41509;53.108;6.100;2023-05-19T07:29:27;13.00;99.90
55642;DHT22;41509;53.108;6.100;2023-05-19T07:31:53;13.10;99.90
55642;DHT22;41509;53.108;6.100;2023-05-19T07:34:22;13.10;99.90
55642;DHT22;41509;53.108;6.100;2023-05-19T07:36:48;13.20;99.90
55642;DHT22;41509;53.108;6.100;2023-05-19T07:39:14;13.20;99.90
55642;DHT22;41509;53.108;6.100;2023-05-19T07:41:40;13.20;99.90
55642;DHT22;41509;53.108;6.100;2023-05-19T07:44:05;13.20;99.90
55642;DHT22;41509;53.108;6.100;2023-05-19T07:46:35;13.20;99.90
55642;DHT22;41509;53.108;6.100;2023-05-19T07:49:00;13.30;99.90
55642;DHT22;41509;53.108;6.100;2023-05-19T07:51:26;13.30;99.90
55642;DHT22;41509;53.108;6.100;2023-05-19T07:53:52;13.30;99.90
55642;DHT22;41509;53.108;6.100;2023-05-19T07:56:17;13.40;99.90
55642;DHT22;41509;53.108;6.100;2023-05-19T07:58:43;13.50;99.90
55642;DHT22;41509;53.108;6.100;2023-05-19T08:01:09;13.60;99.90
55642;DHT22;41509;53.108;6.100;2023-05-19T08:03:35;13.60;99.90
55642;DHT22;41509;53.108;6.100;2023-05-19T08:06:00;13.70;99.90
55642;DHT22;41509;53.108;6.100;2023-05-19T08:08:26;13.80;99.90
55642;DHT22;41509;53.108;6.100;2023-05-19T08:10:52;13.90;99.90
55642;DHT22;41509;53.108;6.100;2023-05-19T08:13:18;14.00;99.90
55642;DHT22;41509;53.108;6.100;2023-05-19T08:15:43;14.00;99.90
55642;DHT22;41509;53.108;6.100;2023-05-19T08:18:09;14.10;99.90
55642;DHT22;41509;53.108;6.100;2023-05-19T08:20:34;14.30;99.90
55642;DHT22;41509;53.108;6.100;2023-05-19T08:23:01;14.40;99.90
55642;DHT22;41509;53.108;6.100;2023-05-19T08:25:26;14.50;99.90
55642;DHT22;41509;53.108;6.100;2023-05-19T08:27:52;14.60;99.90
55642;DHT22;41509;53.108;6.100;2023-05-19T08:30:17;14.70;99.90
55642;DHT22;41509;53.108;6.100;2023-05-19T08:32:43;14.80;99.90
55642;DHT22;41509;53.108;6.100;2023-05-19T08:35:09;14.90;99.90
55642;DHT22;41509;53.108;6.100;2023-05-19T08:37:35;14.90;99.90
55642;DHT22;41509;53.108;6.100;2023-05-19T08:40:03;15.00;99.90
55642;DHT22;41509;53.108;6.100;2023-05-19T08:42:33;15.10;99.90
55642;DHT22;41509;53.108;6.100;2023-05-19T08:44:59;15.10;99.90
55642;DHT22;41509;53.108;6.100;2023-05-19T08:47:25;15.20;99.90
55642;DHT22;41509;53.108;6.100;2023-05-19T08:49:53;15.30;99.90
55642;DHT22;41509;53.108;6.100;2023-05-19T08:55:03;15.50;99.90
55642;DHT22;41509;53.108;6.100;2023-05-19T08:57:31;15.60;99.90
55642;DHT22;41509;53.108;6.100;2023-05-19T08:59:57;15.70;99.90
55642;DHT22;41509;53.108;6.100;2023-05-19T09:02:23;15.80;99.90
55642;DHT22;41509;53.108;6.100;2023-05-19T09:04:49;15.90;99.90
55642;DHT22;41509;53.108;6.100;2023-05-19T09:07:15;15.90;99.90
55642;DHT22;41509;53.108;6.100;2023-05-19T09:09:41;16.00;99.90
55642;DHT22;41509;53.108;6.100;2023-05-19T09:12:12;16.10;99.90
55642;DHT22;41509;53.108;6.100;2023-05-19T09:14:38;16.20;99.90
55642;DHT22;41509;53.108;6.100;2023-05-19T09:17:04;16.20;99.90
55642;DHT22;41509;53.108;6.100;2023-05-19T09:19:30;16.30;99.90
55642;DHT22;41509;53.108;6.100;2023-05-19T09:22:00;16.40;99.90
55642;DHT22;41509;53.108;6.100;2023-05-19T09:24:28;16.50;99.90
55642;DHT22;41509;53.108;6.100;2023-05-19T09:26:56;16.50;99.90
55642;DHT22;41509;53.108;6.100;2023-05-19T09:29:22;16.60;99.90
55642;DHT22;41509;53.108;6.100;2023-05-19T09:34:14;16.80;99.90
55642;DHT22;41509;53.108;6.100;2023-05-19T09:36:40;16.80;99.90
55642;DHT22;41509;53.108;6.100;2023-05-19T09:39:16;16.90;99.90
55642;DHT22;41509;53.108;6.100;2023-05-19T09:41:42;16.80;99.90
55642;DHT22;41509;53.108;6.100;2023-05-19T09:44:23;16.90;99.90
55642;DHT22;41509;53.108;6.100;2023-05-19T09:46:53;16.90;99.90
55642;DHT22;41509;53.108;6.100;2023-05-19T09:49:20;16.90;99.90
55642;DHT22;41509;53.108;6.100;2023-05-19T09:51:58;16.90;99.90
55642;DHT22;41509;53.108;6.100;2023-05-19T09:54:25;16.90;99.90
55642;DHT22;41509;53.108;6.100;2023-05-19T09:57:03;17.00;99.90
55642;DHT22;41509;53.108;6.100;2023-05-19T09:59:30;17.20;99.90
55642;DHT22;41509;53.108;6.100;2023-05-19T10:01:58;17.30;99.90
55642;DHT22;41509;53.108;6.100;2023-05-19T10:04:25;17.30;99.90
55642;DHT22;41509;53.108;6.100;2023-05-19T10:06:52;17.40;99.90
55642;DHT22;41509;53.108;6.100;2023-05-19T10:09:23;17.60;99.90
55642;DHT22;41509;53.108;6.100;2023-05-19T10:11:55;17.70;99.90
55642;DHT22;41509;53.108;6.100;2023-05-19T10:14:22;17.70;99.20
55642;DHT22;41509;53.108;6.100;2023-05-19T10:17:01;17.80;98.30
55642;DHT22;41509;53.108;6.100;2023-05-19T10:19:27;17.90;97.60
55642;DHT22;41509;53.108;6.100;2023-05-19T10:21:54;17.90;98.10
55642;DHT22;41509;53.108;6.100;2023-05-19T10:24:20;18.00;98.10
55642;DHT22;41509;53.108;6.100;2023-05-19T10:26:54;18.10;97.50
55642;DHT22;41509;53.108;6.100;2023-05-19T10:29:27;18.10;95.30
55642;DHT22;41509;53.108;6.100;2023-05-19T10:31:55;18.10;95.60
55642;DHT22;41509;53.108;6.100;2023-05-19T10:34:44;18.10;96.10
55642;DHT22;41509;53.108;6.100;2023-05-19T10:39:54;18.10;93.90
55642;DHT22;41509;53.108;6.100;2023-05-19T10:45:21;18.20;91.30
55642;DHT22;41509;53.108;6.100;2023-05-19T10:47:49;18.20;92.90
55642;DHT22;41509;53.108;6.100;2023-05-19T10:50:16;18.30;92.80
55642;DHT22;41509;53.108;6.100;2023-05-19T10:52:41;18.40;92.40
55642;DHT22;41509;53.108;6.100;2023-05-19T10:55:11;18.40;92.00
55642;DHT22;41509;53.108;6.100;2023-05-19T10:57:54;18.50;90.60
55642;DHT22;41509;53.108;6.100;2023-05-19T11:00:26;18.60;91.50
55642;DHT22;41509;53.108;6.100;2023-05-19T11:02:52;18.70;90.40
55642;DHT22;41509;53.108;6.100;2023-05-19T11:05:27;18.90;91.60
55642;DHT22;41509;53.108;6.100;2023-05-19T11:07:58;19.00;90.90
55642;DHT22;41509;53.108;6.100;2023-05-19T11:10:30;19.10;90.80
55642;DHT22;41509;53.108;6.100;2023-05-19T11:12:56;19.10;90.20
55642;DHT22;41509;53.108;6.100;2023-05-19T11:15:25;19.10;88.90
55642;DHT22;41509;53.108;6.100;2023-05-19T11:17:52;19.10;87.10
55642;DHT22;41509;53.108;6.100;2023-05-19T11:20:28;19.10;84.40
55642;DHT22;41509;53.108;6.100;2023-05-19T11:23:15;19.10;79.80
55642;DHT22;41509;53.108;6.100;2023-05-19T11:28:10;19.10;80.20
55642;DHT22;41509;53.108;6.100;2023-05-19T11:30:43;19.20;79.90
55642;DHT22;41509;53.108;6.100;2023-05-19T11:33:09;19.30;77.60
55642;DHT22;41509;53.108;6.100;2023-05-19T11:35:35;19.40;76.80
55642;DHT22;41509;53.108;6.100;2023-05-19T11:38:01;19.40;76.80
55642;DHT22;41509;53.108;6.100;2023-05-19T11:40:28;19.50;75.40
55642;DHT22;41509;53.108;6.100;2023-05-19T11:42:53;19.50;72.50
55642;DHT22;41509;53.108;6.100;2023-05-19T11:45:30;19.50;73.10
55642;DHT22;41509;53.108;6.100;2023-05-19T11:47:58;19.60;73.60
55642;DHT22;41509;53.108;6.100;2023-05-19T11:50:24;19.60;72.70
55642;DHT22;41509;53.108;6.100;2023-05-19T11:52:51;19.70;72.30
55642;DHT22;41509;53.108;6.100;2023-05-19T11:55:18;19.90;71.40
55642;DHT22;41509;53.108;6.100;2023-05-19T11:57:58;19.90;68.90
55642;DHT22;41509;53.108;6.100;2023-05-19T12:00:25;19.90;68.10
55642;DHT22;41509;53.108;6.100;2023-05-19T12:02:51;20.00;68.10
55642;DHT22;41509;53.108;6.100;2023-05-19T12:05:26;20.20;68.00
55642;DHT22;41509;53.108;6.100;2023-05-19T12:07:56;20.30;67.10
55642;DHT22;41509;53.108;6.100;2023-05-19T12:10:25;20.50;65.50
55642;DHT22;41509;53.108;6.100;2023-05-19T12:12:52;20.60;63.20
55642;DHT22;41509;53.108;6.100;2023-05-19T12:15:19;20.60;63.60
55642;DHT22;41509;53.108;6.100;2023-05-19T12:17:56;20.60;63.20
55642;DHT22;41509;53.108;6.100;2023-05-19T12:20:22;20.70;63.70
55642;DHT22;41509;53.108;6.100;2023-05-19T12:22:50;20.70;63.30
55642;DHT22;41509;53.108;6.100;2023-05-19T12:25:15;20.80;62.30
55642;DHT22;41509;53.108;6.100;2023-05-19T12:27:42;20.80;63.00
55642;DHT22;41509;53.108;6.100;2023-05-19T12:30:08;20.70;63.10
55642;DHT22;41509;53.108;6.100;2023-05-19T12:32:34;20.80;62.20
55642;DHT22;41509;53.108;6.100;2023-05-19T12:35:04;20.80;61.60
55642;DHT22;41509;53.108;6.100;2023-05-19T12:37:33;20.80;60.70
55642;DHT22;41509;53.108;6.100;2023-05-19T12:40:02;20.70;59.90
55642;DHT22;41509;53.108;6.100;2023-05-19T12:42:29;20.60;60.50
55642;DHT22;41509;53.108;6.100;2023-05-19T12:45:01;20.70;60.40
55642;DHT22;41509;53.108;6.100;2023-05-19T12:47:35;20.70;61.00
55642;DHT22;41509;53.108;6.100;2023-05-19T12:50:06;20.70;59.80
55642;DHT22;41509;53.108;6.100;2023-05-19T12:52:41;20.80;61.50
55642;DHT22;41509;53.108;6.100;2023-05-19T12:55:08;20.90;60.20
55642;DHT22;41509;53.108;6.100;2023-05-19T12:57:40;20.90;60.00
55642;DHT22;41509;53.108;6.100;2023-05-19T13:00:20;20.90;60.00
55642;DHT22;41509;53.108;6.100;2023-05-19T13:03:00;21.00;57.60
55642;DHT22;41509;53.108;6.100;2023-05-19T13:05:31;21.00;58.50
55642;DHT22;41509;53.108;6.100;2023-05-19T13:08:04;20.90;58.70
55642;DHT22;41509;53.108;6.100;2023-05-19T13:10:32;20.90;60.40
55642;DHT22;41509;53.108;6.100;2023-05-19T13:12:58;20.90;59.90
55642;DHT22;41509;53.108;6.100;2023-05-19T13:15:28;21.10;60.50
55642;DHT22;41509;53.108;6.100;2023-05-19T13:17:58;21.20;60.60
55642;DHT22;41509;53.108;6.100;2023-05-19T13:20:24;21.30;60.80
55642;DHT22;41509;53.108;6.100;2023-05-19T13:22:50;21.40;60.10
55642;DHT22;41509;53.108;6.100;2023-05-19T13:25:16;21.40;60.80
55642;DHT22;41509;53.108;6.100;2023-05-19T13:27:45;21.50;61.30
55642;DHT22;41509;53.108;6.100;2023-05-19T13:30:11;21.50;60.80
55642;DHT22;41509;53.108;6.100;2023-05-19T13:32:37;21.50;61.00
55642;DHT22;41509;53.108;6.100;2023-05-19T13:35:03;21.50;61.40
55642;DHT22;41509;53.108;6.100;2023-05-19T13:37:29;21.60;60.90
55642;DHT22;41509;53.108;6.100;2023-05-19T13:39:55;21.50;61.20
55642;DHT22;41509;53.108;6.100;2023-05-19T13:42:22;21.40;61.20
55642;DHT22;41509;53.108;6.100;2023-05-19T13:44:47;21.40;61.80
55642;DHT22;41509;53.108;6.100;2023-05-19T13:47:13;21.40;61.50
55642;DHT22;41509;53.108;6.100;2023-05-19T13:49:39;21.30;61.60
55642;DHT22;41509;53.108;6.100;2023-05-19T13:52:06;21.30;61.20
55642;DHT22;41509;53.108;6.100;2023-05-19T13:54:32;21.40;61.00
55642;DHT22;41509;53.108;6.100;2023-05-19T13:56:58;21.40;60.40
55642;DHT22;41509;53.108;6.100;2023-05-19T13:59:26;21.30;60.40
55642;DHT22;41509;53.108;6.100;2023-05-19T14:01:52;21.30;60.70
55642;DHT22;41509;53.108;6.100;2023-05-19T14:04:18;21.30;59.90
55642;DHT22;41509;53.108;6.100;2023-05-19T14:06:45;21.20;59.50
55642;DHT22;41509;53.108;6.100;2023-05-19T14:09:11;21.20;59.80
55642;DHT22;41509;53.108;6.100;2023-05-19T14:11:37;21.30;60.70
55642;DHT22;41509;53.108;6.100;2023-05-19T14:14:02;21.30;61.20
55642;DHT22;41509;53.108;6.100;2023-05-19T14:16:28;21.20;61.60
55642;DHT22;41509;53.108;6.100;2023-05-19T14:18:55;21.20;62.30
55642;DHT22;41509;53.108;6.100;2023-05-19T14:21:20;21.20;63.00
55642;DHT22;41509;53.108;6.100;2023-05-19T14:23:46;21.10;63.60
55642;DHT22;41509;53.108;6.100;2023-05-19T14:26:11;21.00;64.60
55642;DHT22;41509;53.108;6.100;2023-05-19T14:28:37;21.00;66.10
55642;DHT22;41509;53.108;6.100;2023-05-19T14:31:03;21.00;66.40
55642;DHT22;41509;53.108;6.100;2023-05-19T14:33:28;20.90;67.80
55642;DHT22;41509;53.108;6.100;2023-05-19T14:35:54;20.90;71.40
55642;DHT22;41509;53.108;6.100;2023-05-19T14:38:20;21.00;70.50
55642;DHT22;41509;53.108;6.100;2023-05-19T14:40:46;21.00;71.70
55642;DHT22;41509;53.108;6.100;2023-05-19T14:43:13;21.00;73.80
55642;DHT22;41509;53.108;6.100;2023-05-19T14:45:38;20.90;74.10
55642;DHT22;41509;53.108;6.100;2023-05-19T14:48:06;20.90;76.00
55642;DHT22;41509;53.108;6.100;2023-05-19T14:50:32;20.90;76.40
55642;DHT22;41509;53.108;6.100;2023-05-19T14:52:57;20.90;76.60
55642;DHT22;41509;53.108;6.100;2023-05-19T14:55:23;20.90;77.00
55642;DHT22;41509;53.108;6.100;2023-05-19T14:57:49;20.90;78.20
55642;DHT22;41509;53.108;6.100;2023-05-19T15:00:15;21.00;79.10
55642;DHT22;41509;53.108;6.100;2023-05-19T15:02:42;21.10;78.70
55642;DHT22;41509;53.108;6.100;2023-05-19T15:05:08;21.10;78.70
55642;DHT22;41509;53.108;6.100;2023-05-19T15:07:33;21.10;79.10
55642;DHT22;41509;53.108;6.100;2023-05-19T15:09:59;21.10;79.30
55642;DHT22;41509;53.108;6.100;2023-05-19T15:12:26;21.00;79.90
55642;DHT22;41509;53.108;6.100;2023-05-19T15:14:51;21.00;80.60
55642;DHT22;41509;53.108;6.100;2023-05-19T15:17:17;21.10;80.20
55642;DHT22;41509;53.108;6.100;2023-05-19T15:19:43;21.00;79.10
55642;DHT22;41509;53.108;6.100;2023-05-19T15:22:08;20.90;79.20
55642;DHT22;41509;53.108;6.100;2023-05-19T15:24:34;20.90;79.30
55642;DHT22;41509;53.108;6.100;2023-05-19T15:27:00;20.90;79.90
55642;DHT22;41509;53.108;6.100;2023-05-19T15:29:26;20.90;79.70
55642;DHT22;41509;53.108;6.100;2023-05-19T15:31:51;20.90;79.90
55642;DHT22;41509;53.108;6.100;2023-05-19T15:34:18;20.90;80.30
55642;DHT22;41509;53.108;6.100;2023-05-19T15:36:44;20.90;79.40
55642;DHT22;41509;53.108;6.100;2023-05-19T15:39:09;20.90;79.50
55642;DHT22;41509;53.108;6.100;2023-05-19T15:41:35;20.90;79.50
55642;DHT22;41509;53.108;6.100;2023-05-19T15:44:01;20.90;79.10
55642;DHT22;41509;53.108;6.100;2023-05-19T15:46:27;20.90;78.70
55642;DHT22;41509;53.108;6.100;2023-05-19T15:48:53;20.90;79.50
55642;DHT22;41509;53.108;6.100;2023-05-19T15:51:19;21.10;79.80
55642;DHT22;41509;53.108;6.100;2023-05-19T15:53:45;21.10;79.50
55642;DHT22;41509;53.108;6.100;2023-05-19T15:56:11;21.20;80.00
55642;DHT22;41509;53.108;6.100;2023-05-19T15:58:37;21.20;79.80
55642;DHT22;41509;53.108;6.100;2023-05-19T16:01:06;21.20;79.30